Time;durP1;ratioP1;P1;durP2;ratioP2;P2;SDS_P1;SDS_P2;PMS_P1;PMS_P2;Temp;Humidity;BMP_temperature;BMP_pressure;BME280_temperature;BME280_humidity;BME280_pressure;Samples;Min_cycle;Max_cycle;Signal;HPM_P1;HPM_P2
2021/03/25 00:01:42;;;;;;;15.32;6.22;;;;;;;;;;5072258;28;20550;-72
2021/03/25 00:04:08;;;;;;;13.15;6.72;;;;;;;;;;5072186;28;20074;-72
2021/03/25 00:06:36;;;;;;;13.27;6.45;;;;;;;;;;5071809;28;20040;-72
2021/03/25 00:09:04;;;;;;;9.55;5.45;;;;;;;;;;5072209;28;20039;-73
2021/03/25 00:11:30;;;;;;;10.40;4.72;;;;;;;;;;5072115;28;20039;-73
2021/03/25 00:13:56;;;;;;;12.20;6.47;;;;;;;;;;5071952;28;20544;-72
2021/03/25 00:16:22;;;;;;;13.35;4.93;;;;;;;;;;5075462;28;20365;-72
2021/03/25 00:18:48;;;;;;;6.65;3.85;;;;;;;;;;5076137;28;20017;-72
2021/03/25 00:21:15;;;;;;;11.93;7.22;;;;;;;;;;5075959;28;20464;-72
2021/03/25 00:23:41;;;;;;;13.73;6.05;;;;;;;;;;5075935;28;20051;-72
2021/03/25 00:26:07;;;;;;;11.95;5.53;;;;;;;;;;5075607;28;20058;-71
2021/03/25 00:28:33;;;;;;;10.15;4.18;;;;;;;;;;5075922;28;20036;-72
2021/03/25 00:31:00;;;;;;;10.23;4.95;;;;;;;;;;5075900;28;20096;-72
2021/03/25 00:33:26;;;;;;;10.38;5.03;;;;;;;;;;5075551;28;20074;-73
2021/03/25 00:35:52;;;;;;;8.68;4.07;;;;;;;;;;5075917;28;20020;-72
2021/03/25 00:38:19;;;;;;;8.77;4.20;;;;;;;;;;5076055;28;20095;-73
2021/03/25 00:40:46;;;;;;;8.77;4.00;;;;;;;;;;5075371;28;20016;-73
2021/03/25 00:43:13;;;;;;;7.32;4.60;;;;;;;;;;5075556;28;20032;-72
2021/03/25 00:45:44;;;;;;;12.10;4.15;;;;;;;;;;5075582;28;20032;-72
2021/03/25 00:48:11;;;;;;;13.30;5.80;;;;;;;;;;5075051;28;20100;-72
2021/03/25 00:50:40;;;;;;;9.30;3.53;;;;;;;;;;5075453;28;20024;-73
2021/03/25 00:53:07;;;;;;;7.15;3.30;;;;;;;;;;5063328;28;20044;-72
2021/03/25 00:55:34;;;;;;;5.70;3.22;;;;;;;;;;5095393;28;20028;-72
2021/03/25 00:58:00;;;;;;;7.75;3.33;;;;;;;;;;5095661;28;20016;-73
2021/03/25 01:00:28;;;;;;;6.32;3.40;;;;;;;;;;5095630;28;20032;-72
2021/03/25 01:02:55;;;;;;;5.05;2.65;;;;;;;;;;5095142;28;20020;-72
2021/03/25 01:05:22;;;;;;;6.25;3.30;;;;;;;;;;5095501;28;20076;-73
2021/03/25 01:07:49;;;;;;;7.60;3.40;;;;;;;;;;5094079;28;20030;-72
2021/03/25 01:10:20;;;;;;;8.40;3.50;;;;;;;;;;5093764;28;20032;-72
2021/03/25 01:12:47;;;;;;;5.22;2.88;;;;;;;;;;5095636;28;20073;-73
2021/03/25 01:15:13;;;;;;;4.60;2.20;;;;;;;;;;5093536;28;20028;-72
2021/03/25 01:17:46;;;;;;;6.20;2.58;;;;;;;;;;5095283;28;20046;-72
2021/03/25 01:20:12;;;;;;;;;;;;;;;;;;5095727;28;20047;-72
2021/03/25 01:22:38;;;;;;;8.15;3.60;;;;;;;;;;5093457;28;20379;-73
2021/03/25 01:25:05;;;;;;;6.22;2.65;;;;;;;;;;5095041;28;20054;-72
2021/03/25 01:27:31;;;;;;;6.55;3.28;;;;;;;;;;5094708;28;20487;-72
2021/03/25 01:29:59;;;;;;;5.47;2.85;;;;;;;;;;5094652;28;20047;-72
2021/03/25 01:32:25;;;;;;;9.00;4.65;;;;;;;;;;5095792;28;20028;-73
2021/03/25 01:34:51;;;;;;;10.65;4.97;;;;;;;;;;5094945;28;20039;-73
2021/03/25 01:37:17;;;;;;;10.73;5.05;;;;;;;;;;5094564;28;20043;-73
2021/03/25 01:39:44;;;;;;;12.48;4.88;;;;;;;;;;5094814;28;20476;-73
2021/03/25 01:42:24;;;;;;;9.60;3.78;;;;;;;;;;5093587;28;20111;-72
2021/03/25 01:44:50;;;;;;;7.07;3.65;;;;;;;;;;5094405;28;20095;-72
2021/03/25 01:47:16;;;;;;;7.95;4.07;;;;;;;;;;5094694;28;20031;-72
2021/03/25 01:49:42;;;;;;;10.48;4.43;;;;;;;;;;5094670;28;20024;-72
2021/03/25 01:52:27;;;;;;;13.02;5.90;;;;;;;;;;5094641;28;20025;-73
2021/03/25 01:54:59;;;;;;;11.73;5.68;;;;;;;;;;5074999;28;20341;-73
2021/03/25 01:57:31;;;;;;;12.07;5.53;;;;;;;;;;5073893;28;20104;-73
2021/03/25 02:00:10;;;;;;;14.32;6.10;;;;;;;;;;5074289;28;20492;-72
2021/03/25 02:02:51;;;;;;;11.15;5.30;;;;;;;;;;5074170;28;20096;-73
2021/03/25 02:05:21;;;;;;;8.98;3.38;;;;;;;;;;5073760;28;20485;-72
2021/03/25 02:07:51;;;;;;;6.47;3.35;;;;;;;;;;5074211;28;20091;-72
2021/03/25 02:10:36;;;;;;;8.13;3.55;;;;;;;;;;5074016;28;20028;-72
2021/03/25 02:13:05;;;;;;;7.75;3.80;;;;;;;;;;5073683;28;20142;-72
2021/03/25 02:15:39;;;;;;;5.68;2.83;;;;;;;;;;5073944;28;20032;-72
2021/03/25 02:18:08;;;;;;;6.53;2.90;;;;;;;;;;5073822;28;20427;-72
2021/03/25 02:20:37;;;;;;;8.93;3.70;;;;;;;;;;5073406;28;20020;-73
2021/03/25 02:23:24;;;;;;;8.90;4.15;;;;;;;;;;5073792;28;20423;-72
2021/03/25 02:26:03;;;;;;;13.13;6.97;;;;;;;;;;5073367;28;20103;-72
2021/03/25 02:28:48;;;;;;;14.75;7.63;;;;;;;;;;5073501;28;20388;-72
2021/03/25 02:31:17;;;;;;;10.43;5.85;;;;;;;;;;5073708;28;20103;-72
2021/03/25 02:33:46;;;;;;;9.50;5.03;;;;;;;;;;5055263;28;20024;-73
2021/03/25 02:36:13;;;;;;;8.82;4.50;;;;;;;;;;5055543;28;20028;-73
2021/03/25 02:38:41;;;;;;;10.63;3.92;;;;;;;;;;5072603;28;20115;-73
2021/03/25 02:41:20;;;;;;;9.93;3.92;;;;;;;;;;5072978;28;20496;-72
2021/03/25 02:43:53;;;;;;;8.02;3.70;;;;;;;;;;5073349;28;20078;-72
2021/03/25 02:46:24;;;;;;;7.05;3.20;;;;;;;;;;5073258;28;20016;-72
2021/03/25 02:48:51;;;;;;;7.50;3.15;;;;;;;;;;5072955;28;20130;-72
2021/03/25 02:51:22;;;;;;;8.52;3.67;;;;;;;;;;5073350;28;20024;-72
2021/03/25 02:53:49;;;;;;;7.38;3.42;;;;;;;;;;5072782;28;20052;-72
2021/03/25 02:56:21;;;;;;;8.40;4.13;;;;;;;;;;5073135;28;20100;-73
2021/03/25 02:58:49;;;;;;;8.07;3.85;;;;;;;;;;5073097;28;20032;-72
2021/03/25 03:01:17;;;;;;;9.45;4.38;;;;;;;;;;5072620;28;20423;-72
2021/03/25 03:03:51;;;;;;;9.70;4.68;;;;;;;;;;5072891;28;20032;-72
2021/03/25 03:06:24;;;;;;;9.50;4.45;;;;;;;;;;5054999;28;20452;-72
2021/03/25 03:08:51;;;;;;;7.63;4.07;;;;;;;;;;5054978;28;20077;-72
2021/03/25 03:11:28;;;;;;;13.45;5.43;;;;;;;;;;5072889;28;20038;-72
2021/03/25 03:13:58;;;;;;;11.55;5.00;;;;;;;;;;5072914;28;20028;-72
2021/03/25 03:16:30;;;;;;;12.07;4.93;;;;;;;;;;5054407;28;20016;-72
2021/03/25 03:18:58;;;;;;;7.53;4.25;;;;;;;;;;5072686;28;20111;-72
2021/03/25 03:21:29;;;;;;;8.27;4.70;;;;;;;;;;5054778;28;20021;-72
2021/03/25 03:23:56;;;;;;;7.72;3.72;;;;;;;;;;5072333;28;20477;-72
2021/03/25 03:26:33;;;;;;;8.07;3.70;;;;;;;;;;5072573;28;20078;-72
2021/03/25 03:29:04;;;;;;;7.90;3.45;;;;;;;;;;5054221;28;20024;-72
2021/03/25 03:31:37;;;;;;;12.50;4.97;;;;;;;;;;5072774;28;20074;-72
2021/03/25 03:34:05;;;;;;;8.13;3.87;;;;;;;;;;5072640;28;20090;-72
2021/03/25 03:36:31;;;;;;;7.88;3.90;;;;;;;;;;5072094;28;20021;-72
2021/03/25 03:39:04;;;;;;;6.88;3.38;;;;;;;;;;5072472;28;20091;-72
2021/03/25 03:41:39;;;;;;;7.77;3.23;;;;;;;;;;5072488;28;20024;-72
2021/03/25 03:44:08;;;;;;;7.47;3.28;;;;;;;;;;5072043;28;20250;-72
2021/03/25 03:46:35;;;;;;;12.50;5.68;;;;;;;;;;5072377;28;20051;-72
2021/03/25 03:49:13;;;;;;;8.63;5.05;;;;;;;;;;5072197;28;20025;-72
2021/03/25 03:52:00;;;;;;;11.95;5.32;;;;;;;;;;5054168;28;20028;-72
2021/03/25 03:54:26;;;;;;;13.70;6.25;;;;;;;;;;5072028;28;20089;-72
2021/03/25 03:57:01;;;;;;;14.18;6.18;;;;;;;;;;5072317;28;20017;-73
2021/03/25 03:59:39;;;;;;;10.27;5.18;;;;;;;;;;5072245;28;20030;-72
2021/03/25 04:02:13;;;;;;;10.40;4.82;;;;;;;;;;5054261;28;20032;-72
2021/03/25 04:04:41;;;;;;;11.18;4.78;;;;;;;;;;5071894;28;20077;-72
2021/03/25 04:07:09;;;;;;;15.23;6.63;;;;;;;;;;5054253;28;20024;-72
2021/03/25 04:10:04;;;;;;;14.80;8.90;;;;;;;;;;5072302;28;20032;-72
2021/03/25 04:12:36;;;;;;;26.33;10.45;;;;;;;;;;5050690;28;20439;-72
2021/03/25 04:15:14;;;;;;;21.40;9.18;;;;;;;;;;5054224;28;20036;-72
2021/03/25 04:17:42;;;;;;;21.80;9.45;;;;;;;;;;5072120;28;20017;-72
2021/03/25 04:20:11;;;;;;;17.90;8.25;;;;;;;;;;5071778;28;20388;-72
2021/03/25 04:22:41;;;;;;;12.48;6.28;;;;;;;;;;5072077;28;20102;-72
2021/03/25 04:25:28;;;;;;;9.98;5.20;;;;;;;;;;5071602;28;20029;-72
2021/03/25 04:27:57;;;;;;;11.13;4.72;;;;;;;;;;5071937;28;20021;-72
2021/03/25 04:30:26;;;;;;;6.45;3.60;;;;;;;;;;5054095;28;20381;-72
2021/03/25 04:32:53;;;;;;;8.20;4.75;;;;;;;;;;5053693;28;20056;-72
2021/03/25 04:35:20;;;;;;;11.32;4.70;;;;;;;;;;5071958;28;20041;-72
2021/03/25 04:37:47;;;;;;;7.93;4.35;;;;;;;;;;5072004;28;20012;-72
2021/03/25 04:40:16;;;;;;;7.88;4.50;;;;;;;;;;5071471;28;20085;-72
2021/03/25 04:42:43;;;;;;;9.15;4.90;;;;;;;;;;5071834;28;20516;-72
2021/03/25 04:45:35;;;;;;;10.43;5.80;;;;;;;;;;5071819;28;20031;-72
2021/03/25 04:48:03;;;;;;;13.65;7.03;;;;;;;;;;5033335;28;20033;-72
2021/03/25 04:50:36;;;;;;;12.93;6.95;;;;;;;;;;5054038;28;20028;-72
2021/03/25 04:53:02;;;;;;;;;;;;;;;;;;5072148;28;20048;-72
2021/03/25 04:55:32;;;;;;;13.38;6.82;;;;;;;;;;5071370;28;20377;-72
2021/03/25 04:58:04;;;;;;;12.10;5.80;;;;;;;;;;5071692;28;20074;-72
2021/03/25 05:00:32;;;;;;;10.85;6.45;;;;;;;;;;5071499;28;20021;-72
2021/03/25 05:03:01;;;;;;;13.50;6.90;;;;;;;;;;5075220;28;20100;-72
2021/03/25 05:05:28;;;;;;;9.77;5.72;;;;;;;;;;5075301;28;20021;-72
2021/03/25 05:07:57;;;;;;;12.80;6.03;;;;;;;;;;5074807;28;20052;-73
2021/03/25 05:10:26;;;;;;;11.82;5.97;;;;;;;;;;5075317;28;20086;-72
2021/03/25 05:12:54;;;;;;;11.30;5.82;;;;;;;;;;5075272;28;20358;-72
2021/03/25 05:15:22;;;;;;;10.38;5.97;;;;;;;;;;5074860;28;20028;-72
2021/03/25 05:18:07;;;;;;;11.90;5.35;;;;;;;;;;5057053;28;20549;-72
2021/03/25 05:20:46;;;;;;;12.30;6.40;;;;;;;;;;5075018;28;20508;-71
2021/03/25 05:23:31;;;;;;;16.55;8.88;;;;;;;;;;5074570;28;20423;-71
2021/03/25 05:26:10;;;;;;;13.68;7.65;;;;;;;;;;5074925;28;20099;-72
2021/03/25 05:28:45;;;;;;;15.95;9.30;;;;;;;;;;5074340;28;20492;-71
2021/03/25 05:31:13;;;;;;;12.38;6.65;;;;;;;;;;5074945;28;20021;-73
2021/03/25 05:33:39;;;;;;;11.15;5.85;;;;;;;;;;5075170;28;20037;-71
2021/03/25 05:36:08;;;;;;;11.32;7.13;;;;;;;;;;5074377;28;20020;-72
2021/03/25 05:38:35;;;;;;;9.68;5.22;;;;;;;;;;5074648;28;20029;-72
2021/03/25 05:41:01;;;;;;;15.25;7.22;;;;;;;;;;5056593;28;20025;-72
2021/03/25 05:43:46;;;;;;;35.63;12.90;;;;;;;;;;5074123;28;20031;-72
2021/03/25 05:46:12;;;;;;;45.90;18.45;;;;;;;;;;5074660;28;20472;-72
2021/03/25 05:48:38;;;;;;;32.08;13.00;;;;;;;;;;5074509;28;20423;-72
2021/03/25 05:51:23;;;;;;;16.20;8.00;;;;;;;;;;5074105;28;20068;-72
2021/03/25 05:53:58;;;;;;;12.25;6.03;;;;;;;;;;5074364;28;20045;-72
2021/03/25 05:56:39;;;;;;;13.52;6.18;;;;;;;;;;5074341;28;20062;-72
2021/03/25 05:59:11;;;;;;;23.27;11.23;;;;;;;;;;5074277;28;20057;-73
2021/03/25 06:02:00;;;;;;;28.23;12.00;;;;;;;;;;5074268;28;20361;-72
2021/03/25 06:04:31;;;;;;;22.80;11.20;;;;;;;;;;5070065;28;20031;-72
2021/03/25 06:07:03;;;;;;;19.52;9.70;;;;;;;;;;5080436;28;20032;-73
2021/03/25 06:09:52;;;;;;;13.27;6.68;;;;;;;;;;5056638;28;20104;-75
2021/03/25 06:12:27;;;;;;;19.50;10.15;;;;;;;;;;5057416;28;20542;-67
2021/03/25 06:15:02;;;;;;;20.38;10.88;;;;;;;;;;5075570;28;20028;-67
2021/03/25 06:17:37;;;;;;;13.55;7.70;;;;;;;;;;5073536;28;20056;-68
2021/03/25 06:20:16;;;;;;;12.82;7.30;;;;;;;;;;5073167;28;20020;-67
2021/03/25 06:23:04;;;;;;;14.77;7.60;;;;;;;;;;5073482;28;20334;-67
2021/03/25 06:25:36;;;;;;;10.18;4.85;;;;;;;;;;5072720;28;20017;-67
2021/03/25 06:28:06;;;;;;;11.03;5.50;;;;;;;;;;5072649;28;20484;-70
2021/03/25 06:30:34;;;;;;;12.20;4.85;;;;;;;;;;5070587;28;20151;-70
2021/03/25 06:33:01;;;;;;;9.77;3.85;;;;;;;;;;5053923;28;20048;-69
2021/03/25 06:35:43;;;;;;;10.50;4.20;;;;;;;;;;5057867;28;20438;-74
2021/03/25 06:38:24;;;;;;;9.40;4.43;;;;;;;;;;5035506;28;20017;-73
2021/03/25 06:41:07;;;;;;;8.25;4.72;;;;;;;;;;5034963;28;20025;-77
2021/03/25 06:43:40;;;;;;;9.52;4.53;;;;;;;;;;5069913;28;20029;-74
2021/03/25 06:46:06;;;;;;;;;;;;;;;;;;5073356;28;20048;-73
2021/03/25 06:48:42;;;;;;;8.93;4.63;;;;;;;;;;5073269;28;20364;-73
2021/03/25 06:51:28;;;;;;;9.05;4.50;;;;;;;;;;5054160;28;20056;-71
2021/03/25 06:54:13;;;;;;;8.85;5.05;;;;;;;;;;5052561;28;20044;-71
2021/03/25 06:56:46;;;;;;;11.52;5.35;;;;;;;;;;5053061;28;20500;-70
2021/03/25 06:59:20;;;;;;;10.48;5.18;;;;;;;;;;5035138;28;20131;-71
2021/03/25 07:01:47;;;;;;;13.20;7.22;;;;;;;;;;5063254;28;20492;-72
2021/03/25 07:04:27;;;;;;;12.65;6.82;;;;;;;;;;5072216;28;20028;-73
2021/03/25 07:07:06;;;;;;;11.48;6.95;;;;;;;;;;5054242;28;20025;-71
2021/03/25 07:09:33;;;;;;;11.90;6.97;;;;;;;;;;5072745;28;20016;-71
2021/03/25 07:12:03;;;;;;;17.98;7.55;;;;;;;;;;5054662;28;20096;-70
2021/03/25 07:14:36;;;;;;;18.52;9.85;;;;;;;;;;5054210;28;20123;-71
2021/03/25 07:17:02;;;;;;;;;;;;;;;;;;5069343;28;20027;-71
2021/03/25 07:19:28;;;;;;;12.73;7.50;;;;;;;;;;5036468;28;19904;-71
2021/03/25 07:22:14;;;;;;;15.57;8.02;;;;;;;;;;5071069;28;20473;-73
2021/03/25 07:24:40;;;;;;;16.95;9.90;;;;;;;;;;5055621;28;20029;-71
2021/03/25 07:27:11;;;;;;;22.55;10.70;;;;;;;;;;5072401;28;20021;-71
2021/03/25 07:29:38;;;;;;;18.92;10.63;;;;;;;;;;5067547;28;20029;-73
2021/03/25 07:32:04;;;;;;;16.92;9.63;;;;;;;;;;5072224;28;20017;-74
2021/03/25 07:34:30;;;;;;;17.27;8.40;;;;;;;;;;5072620;28;20039;-75
2021/03/25 07:36:57;;;;;;;14.52;8.35;;;;;;;;;;5071971;28;20020;-74
2021/03/25 07:39:26;;;;;;;17.20;10.27;;;;;;;;;;5069258;28;20021;-74
2021/03/25 07:41:54;;;;;;;17.23;9.45;;;;;;;;;;5071807;28;20082;-73
2021/03/25 07:44:29;;;;;;;21.30;11.05;;;;;;;;;;5069805;28;20048;-74
2021/03/25 07:46:57;;;;;;;17.23;9.57;;;;;;;;;;5067188;28;20016;-72
2021/03/25 07:49:25;;;;;;;17.55;11.27;;;;;;;;;;5061627;28;20477;-71
2021/03/25 07:51:52;;;;;;;23.63;14.10;;;;;;;;;;5055741;28;20032;-72
2021/03/25 07:54:25;;;;;;;19.20;12.48;;;;;;;;;;5051524;28;20079;-72
2021/03/25 07:56:59;;;;;;;23.40;12.90;;;;;;;;;;5051608;28;20025;-71
2021/03/25 07:59:35;;;;;;;22.95;11.52;;;;;;;;;;5067422;28;20107;-71
2021/03/25 08:02:02;;;;;;;22.05;14.23;;;;;;;;;;5071370;28;20024;-71
2021/03/25 08:04:30;;;;;;;22.65;12.40;;;;;;;;;;5067354;28;20031;-71
2021/03/25 08:07:09;;;;;;;16.88;8.80;;;;;;;;;;5039199;28;20021;-70
2021/03/25 08:09:47;;;;;;;18.10;8.38;;;;;;;;;;5058895;28;20020;-73
2021/03/25 08:12:23;;;;;;;20.08;8.82;;;;;;;;;;5060210;28;20405;-73
2021/03/25 08:14:51;;;;;;;14.55;7.63;;;;;;;;;;5040468;28;20033;-73
2021/03/25 08:17:20;;;;;;;15.93;9.38;;;;;;;;;;5056796;28;20016;-71
2021/03/25 08:20:05;;;;;;;16.02;8.15;;;;;;;;;;5057445;28;20074;-71
2021/03/25 08:22:55;;;;;;;18.58;9.93;;;;;;;;;;5055243;28;20124;-73
2021/03/25 08:25:34;;;;;;;16.25;8.27;;;;;;;;;;5038541;28;20362;-71
2021/03/25 08:28:00;;;;;;;17.02;9.23;;;;;;;;;;5056531;28;20028;-74
2021/03/25 08:30:36;;;;;;;17.92;10.07;;;;;;;;;;5055473;28;20027;-74
2021/03/25 08:33:20;;;;;;;16.70;9.90;;;;;;;;;;5053080;28;20177;-75
2021/03/25 08:36:09;;;;;;;16.95;7.93;;;;;;;;;;5045191;28;20047;-74
2021/03/25 08:38:44;;;;;;;18.73;11.00;;;;;;;;;;5048059;28;20049;-73
2021/03/25 08:41:21;;;;;;;16.80;8.00;;;;;;;;;;5056354;28;20032;-73
2021/03/25 08:43:53;;;;;;;18.15;11.45;;;;;;;;;;5060717;28;20036;-73
2021/03/25 08:46:27;;;;;;;17.97;11.90;;;;;;;;;;5052096;28;20079;-73
2021/03/25 08:48:58;;;;;;;18.50;10.90;;;;;;;;;;5052458;28;20025;-73
2021/03/25 08:51:29;;;;;;;17.65;10.70;;;;;;;;;;5060863;28;20524;-74
2021/03/25 08:53:59;;;;;;;15.95;9.60;;;;;;;;;;5064784;28;20076;-73
2021/03/25 08:56:28;;;;;;;17.60;10.32;;;;;;;;;;5070272;28;20095;-74
2021/03/25 08:58:57;;;;;;;15.45;8.60;;;;;;;;;;5071583;28;20023;-79
2021/03/25 09:01:27;;;;;;;18.98;10.40;;;;;;;;;;5057047;28;20248;-81
2021/03/25 09:03:59;;;;;;;14.45;8.25;;;;;;;;;;5068679;28;20031;-79
2021/03/25 09:06:28;;;;;;;19.42;9.40;;;;;;;;;;5075074;28;20024;-80
2021/03/25 09:09:26;;;;;;;20.60;9.98;;;;;;;;;;5072321;28;20481;-81
2021/03/25 09:11:52;;;;;;;13.65;7.63;;;;;;;;;;5010899;28;20052;-78
2021/03/25 09:14:20;;;;;;;12.60;6.38;;;;;;;;;;5062624;28;20033;-82
2021/03/25 09:16:47;;;;;;;16.33;8.85;;;;;;;;;;5075324;28;20029;-81
2021/03/25 09:19:26;;;;;;;16.25;8.27;;;;;;;;;;5074872;28;20024;-80
2021/03/25 09:21:53;;;;;;;20.95;8.68;;;;;;;;;;5053525;28;20020;-78
2021/03/25 09:24:19;;;;;;;13.07;7.55;;;;;;;;;;5033816;28;20108;-80
2021/03/25 09:26:45;;;;;;;12.35;6.13;;;;;;;;;;5053377;28;20661;-82
2021/03/25 09:29:13;;;;;;;15.45;7.75;;;;;;;;;;5066824;28;20024;-76
2021/03/25 09:31:42;;;;;;;16.15;8.80;;;;;;;;;;5073926;28;20012;-84
2021/03/25 09:34:11;;;;;;;12.02;6.78;;;;;;;;;;5074163;28;20582;-80
2021/03/25 09:36:37;;;;;;;23.60;12.98;;;;;;;;;;5056706;28;20028;-81
2021/03/25 09:39:03;;;;;;;12.15;6.60;;;;;;;;;;5065429;28;20362;-78
2021/03/25 09:41:30;;;;;;;13.15;6.10;;;;;;;;;;5074889;28;20384;-78
2021/03/25 09:43:56;;;;;;;15.43;8.38;;;;;;;;;;5074792;28;20016;-79
2021/03/25 09:46:29;;;;;;;13.43;6.65;;;;;;;;;;5057935;28;20066;-81
2021/03/25 09:48:57;;;;;;;14.32;8.57;;;;;;;;;;5056384;28;20033;-79
2021/03/25 09:51:26;;;;;;;16.80;7.72;;;;;;;;;;5057732;28;20427;-80
2021/03/25 09:53:54;;;;;;;10.63;5.18;;;;;;;;;;5058268;28;20051;-80
2021/03/25 09:56:32;;;;;;;8.52;4.85;;;;;;;;;;5099004;28;20019;-77
2021/03/25 09:58:59;;;;;;;14.15;7.13;;;;;;;;;;5100575;28;20052;-76
2021/03/25 10:01:44;;;;;;;13.13;6.65;;;;;;;;;;5110906;28;20020;-82
2021/03/25 10:04:25;;;;;;;11.40;6.25;;;;;;;;;;5114521;28;20020;-76
2021/03/25 10:06:56;;;;;;;10.32;5.50;;;;;;;;;;5096946;28;20016;-83
2021/03/25 10:09:43;;;;;;;17.10;8.88;;;;;;;;;;5086215;28;20016;-81
2021/03/25 10:12:12;;;;;;;23.10;12.27;;;;;;;;;;5067575;28;20031;-75
2021/03/25 10:14:47;;;;;;;21.27;9.73;;;;;;;;;;5071855;28;20081;-75
2021/03/25 10:19:36;;;;;;;10.57;5.88;;;;;;;;;;5067529;28;20380;-75
2021/03/25 10:23:23;;;;;;;13.68;6.95;;;;;;;;;;5169904;27;20314;-74
2021/03/25 10:25:51;;;;;;;13.95;6.68;;;;;;;;;;5126269;28;20036;-74
2021/03/25 10:28:20;;;;;;;14.10;7.47;;;;;;;;;;5135267;27;20051;-76
2021/03/25 10:34:24;;;;;;;11.43;6.47;;;;;;;;;;5061791;28;20910;-74
2021/03/25 10:37:22;;;;;;;13.40;5.55;;;;;;;;;;5067347;28;20025;-74
2021/03/25 10:39:49;;;;;;;30.33;13.68;;;;;;;;;;5056382;28;20051;-73
2021/03/25 10:42:24;;;;;;;13.63;5.15;;;;;;;;;;5067574;28;20639;-71
2021/03/25 10:44:50;;;;;;;11.13;5.45;;;;;;;;;;5067485;28;20017;-69
2021/03/25 10:47:47;;;;;;;10.82;6.00;;;;;;;;;;5108016;27;20942;-72
2021/03/25 10:52:05;;;;;;;18.88;7.90;;;;;;;;;;5065189;28;20400;-74
2021/03/25 10:54:38;;;;;;;12.90;6.43;;;;;;;;;;5050247;28;20040;-70
2021/03/25 11:00:29;;;;;;;12.02;6.53;;;;;;;;;;5066248;28;20379;-72
2021/03/25 11:03:29;;;;;;;16.75;7.80;;;;;;;;;;5107779;27;20318;-71
2021/03/25 11:05:58;;;;;;;11.65;6.45;;;;;;;;;;5106849;28;20107;-71
2021/03/25 11:08:41;;;;;;;13.05;8.02;;;;;;;;;;5108063;28;20028;-72
2021/03/25 11:11:37;;;;;;;12.33;6.47;;;;;;;;;;5109014;28;20028;-78
2021/03/25 11:14:06;;;;;;;12.18;5.93;;;;;;;;;;5092428;28;20081;-79
2021/03/25 11:16:32;;;;;;;11.25;6.00;;;;;;;;;;5095197;28;20024;-75
2021/03/25 11:19:02;;;;;;;14.68;7.57;;;;;;;;;;5102171;28;20030;-76
2021/03/25 11:21:36;;;;;;;12.00;6.05;;;;;;;;;;5089091;28;20054;-80
2021/03/25 11:24:05;;;;;;;12.35;6.85;;;;;;;;;;5089409;28;20028;-76
2021/03/25 11:26:32;;;;;;;9.60;5.43;;;;;;;;;;5090515;28;20126;-78
2021/03/25 11:28:58;;;;;;;10.98;6.13;;;;;;;;;;5109420;28;20077;-80
2021/03/25 11:31:26;;;;;;;14.35;6.13;;;;;;;;;;5101428;28;20524;-74
2021/03/25 11:33:53;;;;;;;11.75;6.43;;;;;;;;;;5100341;28;20024;-76
2021/03/25 11:37:00;;;;;;;12.93;5.90;;;;;;;;;;5069336;28;20448;-72
2021/03/25 11:39:30;;;;;;;13.95;7.43;;;;;;;;;;5069117;28;20048;-71
2021/03/25 11:41:58;;;;;;;11.35;6.15;;;;;;;;;;5066195;28;20033;-69
2021/03/25 11:44:39;;;;;;;12.60;6.82;;;;;;;;;;5065069;28;20089;-72
2021/03/25 11:47:23;;;;;;;13.05;7.22;;;;;;;;;;5066592;28;20020;-71
2021/03/25 11:52:23;;;;;;;12.10;6.82;;;;;;;;;;5109656;27;20438;-71
2021/03/25 11:55:42;;;;;;;11.63;6.78;;;;;;;;;;5119535;27;20167;-71
2021/03/25 11:58:19;;;;;;;14.98;6.47;;;;;;;;;;5102035;28;20031;-72
2021/03/25 12:01:02;;;;;;;11.13;5.78;;;;;;;;;;5105524;28;20059;-70
2021/03/25 12:03:30;;;;;;;13.18;7.68;;;;;;;;;;5089683;28;20070;-71
2021/03/25 12:06:04;;;;;;;10.43;5.57;;;;;;;;;;5109091;27;20441;-70
2021/03/25 12:08:31;;;;;;;12.77;6.05;;;;;;;;;;5109268;28;20038;-72
2021/03/25 12:11:01;;;;;;;10.23;5.28;;;;;;;;;;5110064;28;20363;-72
2021/03/25 12:13:27;;;;;;;10.98;5.97;;;;;;;;;;5109694;28;20095;-73
2021/03/25 12:15:53;;;;;;;12.85;6.03;;;;;;;;;;5107386;28;20034;-71
2021/03/25 12:18:31;;;;;;;10.20;5.22;;;;;;;;;;5107082;28;20031;-73
2021/03/25 12:21:00;;;;;;;12.20;6.38;;;;;;;;;;5105622;28;20023;-72
2021/03/25 12:23:31;;;;;;;10.65;6.05;;;;;;;;;;5125343;28;20050;-73
2021/03/25 12:25:59;;;;;;;12.25;6.63;;;;;;;;;;5111243;28;20027;-73
2021/03/25 12:28:35;;;;;;;11.00;6.45;;;;;;;;;;5109269;27;20434;-73
2021/03/25 12:32:23;;;;;;;12.25;6.63;;;;;;;;;;5109010;27;20377;-78
2021/03/25 12:34:50;;;;;;;13.15;7.40;;;;;;;;;;5109418;28;20107;-77
2021/03/25 12:37:16;;;;;;;24.13;12.15;;;;;;;;;;5107124;28;20019;-76
2021/03/25 12:39:42;;;;;;;16.67;8.55;;;;;;;;;;5108737;28;20420;-76
2021/03/25 12:42:10;;;;;;;12.85;7.57;;;;;;;;;;5108440;28;20032;-75
2021/03/25 12:44:36;;;;;;;11.65;5.38;;;;;;;;;;5088621;28;20485;-76
2021/03/25 12:47:03;;;;;;;13.13;5.57;;;;;;;;;;5094985;28;20052;-74
2021/03/25 12:49:29;;;;;;;13.35;8.10;;;;;;;;;;5089147;28;20157;-75
2021/03/25 12:52:59;;;;;;;12.20;7.65;;;;;;;;;;5071924;28;20388;-77
2021/03/25 12:55:26;;;;;;;11.30;5.75;;;;;;;;;;5071307;28;20028;-80
2021/03/25 12:57:53;;;;;;;14.55;7.45;;;;;;;;;;5069336;28;20095;-76
2021/03/25 13:00:30;;;;;;;9.43;5.22;;;;;;;;;;5063646;28;20425;-77
2021/03/25 13:02:56;;;;;;;16.23;6.78;;;;;;;;;;5066641;28;20086;-76
2021/03/25 13:05:24;;;;;;;9.82;6.03;;;;;;;;;;5064783;28;20111;-77
2021/03/25 13:07:51;;;;;;;14.10;7.80;;;;;;;;;;5067428;28;20017;-77
2021/03/25 13:10:21;;;;;;;14.63;9.20;;;;;;;;;;5069074;28;20103;-76
2021/03/25 13:12:47;;;;;;;13.27;7.30;;;;;;;;;;5068141;28;20028;-77
2021/03/25 13:15:15;;;;;;;14.40;9.13;;;;;;;;;;5067441;28;20021;-76
2021/03/25 13:17:41;;;;;;;12.40;7.10;;;;;;;;;;5068780;28;20058;-76
2021/03/25 13:20:09;;;;;;;10.98;6.57;;;;;;;;;;5063383;28;20020;-75
2021/03/25 13:22:35;;;;;;;11.68;6.85;;;;;;;;;;5068552;28;20096;-75
2021/03/25 13:25:01;;;;;;;11.95;6.10;;;;;;;;;;5067448;28;20025;-76
2021/03/25 13:27:27;;;;;;;17.45;9.68;;;;;;;;;;5068186;28;20021;-76
2021/03/25 13:29:56;;;;;;;16.65;7.55;;;;;;;;;;5068021;28;20099;-76
2021/03/25 13:32:23;;;;;;;17.70;9.75;;;;;;;;;;5068274;28;20033;-81
2021/03/25 13:34:49;;;;;;;12.07;7.50;;;;;;;;;;5068942;28;20055;-79
2021/03/25 13:38:26;;;;;;;14.05;7.28;;;;;;;;;;5110511;27;20454;-77
2021/03/25 13:42:43;;;;;;;12.93;6.88;;;;;;;;;;5110230;27;20426;-77
2021/03/25 13:48:22;;;;;;;17.67;9.10;;;;;;;;;;5110048;27;20945;-78
2021/03/25 13:50:49;;;;;;;15.20;8.45;;;;;;;;;;5110805;28;20476;-78
2021/03/25 13:53:15;;;;;;;14.00;7.45;;;;;;;;;;5108980;28;20041;-76
2021/03/25 13:55:43;;;;;;;14.32;6.95;;;;;;;;;;5109872;28;20537;-76
2021/03/25 13:58:10;;;;;;;21.30;11.30;;;;;;;;;;5110161;28;20058;-77
2021/03/25 14:00:37;;;;;;;20.55;12.77;;;;;;;;;;5109939;28;20019;-77
2021/03/25 14:04:33;;;;;;;13.32;7.18;;;;;;;;;;5111914;27;20442;-78
2021/03/25 14:06:59;;;;;;;19.20;9.80;;;;;;;;;;5113478;28;20426;-78
2021/03/25 14:09:25;;;;;;;12.13;6.93;;;;;;;;;;5111854;28;20062;-76
2021/03/25 14:11:51;;;;;;;16.95;7.68;;;;;;;;;;5110225;28;20065;-77
2021/03/25 14:14:17;;;;;;;13.32;7.53;;;;;;;;;;5109049;28;20016;-77
2021/03/25 14:19:03;;;;;;;17.00;8.27;;;;;;;;;;5132384;27;20819;-78
2021/03/25 14:22:07;;;;;;;18.55;9.20;;;;;;;;;;5111127;27;20353;-78
2021/03/25 14:24:36;;;;;;;19.20;10.85;;;;;;;;;;5109005;28;20383;-78
2021/03/25 14:27:02;;;;;;;19.45;11.15;;;;;;;;;;5110256;28;20015;-76
2021/03/25 14:29:28;;;;;;;21.42;11.98;;;;;;;;;;5108850;28;20119;-77
2021/03/25 14:31:54;;;;;;;18.73;10.50;;;;;;;;;;5108495;28;20028;-77
2021/03/25 14:35:12;;;;;;;15.88;9.60;;;;;;;;;;5110330;27;20381;-77
2021/03/25 14:37:38;;;;;;;21.42;10.90;;;;;;;;;;5110179;28;20020;-79
2021/03/25 14:43:45;;;;;;;31.73;17.40;;;;;;;;;;5110616;27;20446;-78
2021/03/25 14:46:12;;;;;;;25.20;13.82;;;;;;;;;;5110704;28;20059;-78
2021/03/25 14:48:38;;;;;;;21.48;13.27;;;;;;;;;;5113190;28;20023;-78
2021/03/25 14:51:06;;;;;;;26.38;15.25;;;;;;;;;;5114966;28;20019;-78
2021/03/25 14:53:33;;;;;;;27.02;15.48;;;;;;;;;;5113616;28;20031;-79
2021/03/25 14:55:59;;;;;;;24.30;14.45;;;;;;;;;;5110629;28;20472;-77
2021/03/25 14:58:25;;;;;;;21.50;11.90;;;;;;;;;;5109853;28;20055;-77
2021/03/25 15:03:04;;;;;;;12.02;6.78;;;;;;;;;;5069803;28;20383;-77
2021/03/25 15:05:30;;;;;;;10.70;6.40;;;;;;;;;;5069990;28;20032;-79
2021/03/25 15:07:56;;;;;;;17.05;8.77;;;;;;;;;;5071691;28;20076;-79
2021/03/25 15:10:23;;;;;;;15.45;8.07;;;;;;;;;;5070553;28;20032;-78
2021/03/25 15:12:49;;;;;;;14.40;7.80;;;;;;;;;;5069447;28;20021;-76
2021/03/25 15:16:06;;;;;;;13.13;7.63;;;;;;;;;;5091840;27;20738;-77
2021/03/25 15:18:48;;;;;;;19.35;9.20;;;;;;;;;;5111079;27;20381;-77
2021/03/25 15:21:14;;;;;;;15.55;9.00;;;;;;;;;;5110402;28;20073;-77
2021/03/25 15:25:27;;;;;;;22.42;11.82;;;;;;;;;;5110170;27;20640;-78
2021/03/25 15:27:54;;;;;;;19.40;11.48;;;;;;;;;;5109744;28;20028;-77
2021/03/25 15:30:22;;;;;;;18.80;10.82;;;;;;;;;;5110069;28;20016;-78
2021/03/25 15:34:45;;;;;;;25.10;15.63;;;;;;;;;;5130430;27;20310;-79
2021/03/25 15:37:11;;;;;;;18.50;9.35;;;;;;;;;;5110633;28;20038;-78